Time;durP1;ratioP1;P1;durP2;ratioP2;P2;SDS_P1;SDS_P2;PMS_P1;PMS_P2;Temp;Humidity;BMP_temperature;BMP_pressure;BME280_temperature;BME280_humidity;BME280_pressure;Samples;Min_cycle;Max_cycle;Signal;HPM_P1;HPM_P2
2022/07/25 00:01:57;;;;;;;9.48;7.97;;;;;;;19.81;100.00;165750.41;5014270;28;20421;-65
2022/07/25 00:04:22;;;;;;;9.98;8.07;;;;;;;19.80;100.00;165749.06;5027220;28;20087;-65
2022/07/25 00:06:47;;;;;;;12.70;10.20;;;;;;;19.75;100.00;165734.13;5033866;28;20113;-65
2022/07/25 00:09:13;;;;;;;9.13;8.23;;;;;;;19.55;100.00;165682.53;5032012;28;20484;-65
2022/07/25 00:11:38;;;;;;;10.18;8.40;;;;;;;19.60;100.00;165696.13;5033398;28;20026;-64
2022/07/25 00:14:04;;;;;;;9.07;7.95;;;;;;;19.54;100.00;165678.47;5023710;28;20032;-63
2022/07/25 00:16:30;;;;;;;13.18;9.25;;;;;;;19.47;100.00;165660.88;5012153;28;20038;-63
2022/07/25 00:18:55;;;;;;;13.10;9.02;;;;;;;19.43;100.00;165649.97;5021368;28;20391;-63
2022/07/25 00:21:20;;;;;;;10.45;9.50;;;;;;;19.38;100.00;165636.44;5031825;28;20068;-65
2022/07/25 00:23:46;;;;;;;9.20;8.30;;;;;;;19.33;100.00;165625.56;5023543;28;20029;-65
2022/07/25 00:26:11;;;;;;;11.38;8.40;;;;;;;19.29;100.00;165613.34;5011731;28;20054;-65
2022/07/25 00:28:36;;;;;;;9.70;8.80;;;;;;;19.23;100.00;165598.44;5013932;28;20040;-63
2022/07/25 00:31:02;;;;;;;13.15;10.10;;;;;;;19.13;100.00;165571.31;5012437;28;20042;-63
2022/07/25 00:33:27;;;;;;;13.00;8.98;;;;;;;19.10;100.00;165563.19;5020283;28;20338;-62
2022/07/25 00:35:52;;;;;;;9.45;8.20;;;;;;;19.06;100.00;165552.31;5031929;28;20093;-64
2022/07/25 00:38:18;;;;;;;11.07;9.45;;;;;;;19.05;100.00;165549.59;5032592;28;20060;-64
2022/07/25 00:40:43;;;;;;;11.07;9.05;;;;;;;19.02;100.00;165544.16;5028684;28;20044;-64
2022/07/25 00:43:08;;;;;;;10.02;8.70;;;;;;;18.97;100.00;165529.28;5013292;28;20026;-64
2022/07/25 00:45:34;;;;;;;13.50;9.18;;;;;;;18.87;100.00;165503.47;5011969;28;20041;-64
2022/07/25 00:47:59;;;;;;;10.77;9.68;;;;;;;18.80;100.00;165484.47;5017719;28;20427;-64
2022/07/25 00:50:25;;;;;;;10.32;9.43;;;;;;;18.67;100.00;165451.88;5011783;28;20458;-64
2022/07/25 00:52:51;;;;;;;13.63;10.30;;;;;;;18.63;100.00;165441.06;5013043;28;20034;-64
2022/07/25 00:55:16;;;;;;;11.07;10.07;;;;;;;18.58;100.00;165426.13;5011246;28;20033;-64
2022/07/25 00:57:42;;;;;;;17.65;12.98;;;;;;;18.49;100.00;165404.44;5013365;28;20076;-64
2022/07/25 01:00:11;;;;;;;14.95;9.88;;;;;;;18.43;100.00;165386.81;5011689;28;20099;-64
2022/07/25 01:02:36;;;;;;;11.30;10.25;;;;;;;18.33;100.00;165362.41;5020471;28;20033;-64
2022/07/25 01:05:03;;;;;;;10.55;9.55;;;;;;;18.25;100.00;165340.72;5030624;28;20091;-63
2022/07/25 01:07:29;;;;;;;12.63;10.52;;;;;;;18.18;100.00;165321.72;5032574;28;20026;-64
2022/07/25 01:09:55;;;;;;;12.27;11.10;;;;;;;18.13;100.00;165309.53;5031032;28;20040;-64
2022/07/25 01:12:20;;;;;;;10.45;9.43;;;;;;;18.03;100.00;165282.38;5032542;28;20362;-64
2022/07/25 01:14:46;;;;;;;13.25;10.50;;;;;;;18.00;100.00;165275.59;5013090;28;20140;-64
2022/07/25 01:17:12;;;;;;;12.45;11.23;;;;;;;17.94;100.00;165259.31;5011888;28;20389;-63
2022/07/25 01:19:37;;;;;;;17.85;11.02;;;;;;;17.87;100.00;165241.66;5024604;28;20095;-62
2022/07/25 01:22:03;;;;;;;15.60;10.52;;;;;;;17.82;100.00;165228.13;5030355;28;20547;-62
2022/07/25 01:24:28;;;;;;;12.90;11.63;;;;;;;17.76;100.00;165213.19;5011029;28;20030;-62
2022/07/25 01:26:53;;;;;;;12.13;10.50;;;;;;;17.72;100.00;165202.38;5012453;28;20054;-63
2022/07/25 01:29:19;;;;;;;11.55;10.43;;;;;;;17.66;100.00;165186.13;5016339;28;20044;-64
2022/07/25 01:31:44;;;;;;;14.80;11.02;;;;;;;17.64;100.00;165180.69;5031058;28;20388;-64
2022/07/25 01:34:09;;;;;;;14.00;11.43;;;;;;;17.61;100.00;165172.53;5031703;28;20022;-64
2022/07/25 01:36:35;;;;;;;12.23;11.02;;;;;;;17.59;100.00;165168.47;5030748;28;20042;-64
2022/07/25 01:39:00;;;;;;;12.57;11.43;;;;;;;17.58;100.00;165164.44;5031552;28;20018;-64
2022/07/25 01:41:26;;;;;;;11.85;10.75;;;;;;;17.58;100.00;165165.75;5029934;28;20497;-66
2022/07/25 01:43:51;;;;;;;13.10;11.90;;;;;;;17.57;100.00;165161.72;5032136;28;20037;-65
2022/07/25 01:46:16;;;;;;;13.85;12.38;;;;;;;17.55;100.00;165156.28;5022866;28;20401;-61
2022/07/25 01:48:42;;;;;;;12.43;11.23;;;;;;;17.52;100.00;165149.50;5012120;28;20079;-60
2022/07/25 01:51:09;;;;;;;13.07;11.77;;;;;;;17.49;100.00;165141.41;5011937;28;20053;-62
2022/07/25 01:53:35;;;;;;;14.85;12.30;;;;;;;17.47;100.00;165134.59;5012069;28;20105;-63
2022/07/25 01:56:00;;;;;;;14.73;10.60;;;;;;;17.45;100.00;165130.53;5012831;28;20405;-62
2022/07/25 01:58:25;;;;;;;13.68;12.48;;;;;;;17.40;100.00;165118.31;5031550;28;20468;-63
2022/07/25 02:00:51;;;;;;;10.48;9.48;;;;;;;17.46;100.00;165133.25;5029605;28;20050;-63
2022/07/25 02:03:31;;;;;;;18.27;14.80;;;;;;;17.51;100.00;165145.44;5021145;28;20032;-63
2022/07/25 02:06:04;;;;;;;16.35;14.02;;;;;;;17.57;100.00;165161.72;5010490;28;20057;-63
2022/07/25 02:08:30;;;;;;;18.00;16.15;;;;;;;17.63;100.00;165177.97;5029244;28;20369;-62
2022/07/25 02:10:56;;;;;;;20.67;18.42;;;;;;;17.70;100.00;165196.94;5029743;28;20041;-62
2022/07/25 02:13:22;;;;;;;17.05;14.27;;;;;;;17.80;100.00;165221.34;5026260;28;20030;-62
2022/07/25 02:15:48;;;;;;;15.48;14.10;;;;;;;17.88;100.00;165244.38;5012715;28;20053;-63
2022/07/25 02:18:14;;;;;;;14.70;12.90;;;;;;;18.05;100.00;165289.22;5029389;28;20032;-63
2022/07/25 02:20:39;;;;;;;18.42;14.32;;;;;;;18.18;100.00;165323.06;5010398;28;20382;-63
2022/07/25 02:23:04;;;;;;;19.27;13.23;;;;;;;18.33;100.00;165362.41;5011678;28;20034;-63
2022/07/25 02:25:30;;;;;;;15.77;13.52;;;;;;;18.42;100.00;165385.44;5009840;28;20064;-62
2022/07/25 02:27:55;;;;;;;14.20;12.88;;;;;;;18.56;100.00;165422.06;5024304;28;20527;-62
2022/07/25 02:30:21;;;;;;;16.95;11.77;;;;;;;18.68;100.00;165453.28;5024703;28;20050;-62
2022/07/25 02:32:46;;;;;;;12.90;11.43;;;;;;;18.78;100.00;165479.03;5010964;28;20469;-62
2022/07/25 02:35:11;;;;;;;13.32;11.98;;;;;;;18.91;100.00;165512.94;5010074;28;20038;-62
2022/07/25 02:37:37;;;;;;;16.27;13.40;;;;;;;18.99;100.00;165536.03;5011023;28;20030;-62
2022/07/25 02:40:02;;;;;;;13.60;11.35;;;;;;;19.10;100.00;165563.19;5009815;28;20041;-62
2022/07/25 02:42:28;;;;;;;29.30;13.25;;;;;;;19.20;100.00;165588.94;5011165;28;20038;-63
2022/07/25 02:44:53;;;;;;;14.00;12.70;;;;;;;19.26;100.00;165606.56;5009728;28;20038;-62
2022/07/25 02:47:18;;;;;;;14.48;12.18;;;;;;;19.32;100.00;165622.84;5014006;28;20524;-62
2022/07/25 02:49:44;;;;;;;12.98;11.60;;;;;;;19.37;100.00;165633.72;5029702;28;20041;-62
2022/07/25 02:52:09;;;;;;;15.02;12.60;;;;;;;19.39;100.00;165640.50;5030735;28;20030;-62
2022/07/25 02:54:34;;;;;;;14.68;12.25;;;;;;;19.43;100.00;165649.97;5029352;28;20037;-62
2022/07/25 02:57:00;;;;;;;12.73;10.85;;;;;;;19.45;100.00;165656.75;5029372;28;20036;-62
2022/07/25 02:59:25;;;;;;;13.32;12.02;;;;;;;19.47;100.00;165662.19;5029304;28;20025;-62
2022/07/25 03:01:50;;;;;;;13.48;12.07;;;;;;;19.48;100.00;165663.53;5027025;28;20032;-62
2022/07/25 03:04:16;;;;;;;16.10;12.18;;;;;;;19.47;100.00;165660.88;5018167;28;20014;-61
2022/07/25 03:06:41;;;;;;;14.57;11.70;;;;;;;19.50;100.00;165670.38;5017745;28;20025;-62
2022/07/25 03:09:07;;;;;;;14.57;13.18;;;;;;;19.49;100.00;165666.25;5010780;28;20033;-61
2022/07/25 03:11:33;;;;;;;19.58;13.27;;;;;;;19.49;100.00;165666.25;5016954;28;20046;-61
2022/07/25 03:13:58;;;;;;;19.58;12.55;;;;;;;19.47;100.00;165660.88;5030482;28;20033;-61
2022/07/25 03:16:24;;;;;;;17.25;13.00;;;;;;;19.53;100.00;165677.13;5026995;28;20436;-61
2022/07/25 03:18:49;;;;;;;14.23;12.65;;;;;;;19.53;100.00;165677.13;5011035;28;20076;-61
2022/07/25 03:21:14;;;;;;;12.98;11.68;;;;;;;19.52;100.00;165674.41;5010446;28;20112;-61
2022/07/25 03:23:40;;;;;;;19.70;13.15;;;;;;;19.51;100.00;165671.69;5030531;28;20022;-61
2022/07/25 03:26:05;;;;;;;13.57;11.70;;;;;;;19.50;100.00;165670.38;5030312;28;20041;-61
2022/07/25 03:28:31;;;;;;;16.42;12.93;;;;;;;19.50;100.00;165668.97;5033863;28;20504;-60
2022/07/25 03:30:56;;;;;;;25.50;13.27;;;;;;;19.49;100.00;165667.66;5032903;28;20045;-62
2022/07/25 03:33:22;;;;;;;14.75;11.88;;;;;;;19.48;100.00;165663.53;5018939;28;20033;-63
2022/07/25 03:35:47;;;;;;;15.30;12.23;;;;;;;19.49;100.00;165666.25;5013370;28;20432;-62
2022/07/25 03:38:13;;;;;;;15.23;12.98;;;;;;;19.48;100.00;165663.53;5014100;28;20493;-61
2022/07/25 03:40:38;;;;;;;15.70;13.23;;;;;;;19.51;100.00;165671.69;5013013;28;20576;-63
2022/07/25 03:43:03;;;;;;;24.75;15.32;;;;;;;19.50;100.00;165670.38;5030225;28;20416;-62
2022/07/25 03:45:29;;;;;;;18.63;13.55;;;;;;;19.49;100.00;165666.25;5032380;28;20037;-61
2022/07/25 03:47:54;;;;;;;17.67;11.15;;;;;;;19.50;100.00;165668.97;5020294;28;20030;-62
2022/07/25 03:50:20;;;;;;;15.60;11.25;;;;;;;19.55;100.00;165682.53;5012780;28;20045;-62
2022/07/25 03:52:45;;;;;;;16.58;13.38;;;;;;;19.61;100.00;165698.84;5022723;28;20032;-60
2022/07/25 03:55:11;;;;;;;14.90;11.40;;;;;;;19.63;100.00;165704.25;5031817;28;20095;-63
2022/07/25 03:57:36;;;;;;;15.93;12.65;;;;;;;19.66;100.00;165712.41;5033890;28;20072;-64
2022/07/25 04:00:04;;;;;;;14.50;12.95;;;;;;;19.65;100.00;165709.69;5032355;28;20121;-63
2022/07/25 04:02:29;;;;;;;17.03;14.17;;;;;;;19.66;100.00;165712.41;5033781;28;20151;-63
2022/07/25 04:04:55;;;;;;;14.90;13.30;;;;;;;19.62;100.00;165701.53;5032418;28;20507;-63
2022/07/25 04:07:20;;;;;;;15.40;13.30;;;;;;;19.59;100.00;165693.41;5031361;28;20022;-63
2022/07/25 04:09:45;;;;;;;14.57;11.63;;;;;;;19.55;100.00;165681.19;5032418;28;20041;-64
2022/07/25 04:12:11;;;;;;;13.13;11.70;;;;;;;19.55;100.00;165681.19;5032552;28;20028;-64
2022/07/25 04:14:36;;;;;;;14.93;12.77;;;;;;;19.55;100.00;165681.19;5031348;28;20041;-64
2022/07/25 04:17:02;;;;;;;15.63;13.63;;;;;;;19.49;100.00;165666.25;5017381;28;20018;-64
2022/07/25 04:19:27;;;;;;;16.08;12.00;;;;;;;19.49;100.00;165666.25;5013583;28;20034;-64
2022/07/25 04:21:53;;;;;;;15.35;11.45;;;;;;;19.49;100.00;165666.25;5013821;28;20026;-64
2022/07/25 04:24:18;;;;;;;17.50;12.20;;;;;;;19.50;100.00;165670.38;5017644;28;20036;-65
2022/07/25 04:26:43;;;;;;;20.73;11.73;;;;;;;19.61;100.00;165697.47;5033412;28;20068;-64
2022/07/25 04:29:09;;;;;;;24.15;11.25;;;;;;;19.70;100.00;165720.53;5033351;28;20060;-64
2022/07/25 04:31:34;;;;;;;20.27;13.10;;;;;;;19.79;100.00;165744.97;5029937;28;20496;-63
2022/07/25 04:33:59;;;;;;;17.70;10.65;;;;;;;19.85;100.00;165761.28;5033279;28;20029;-63
2022/07/25 04:36:25;;;;;;;13.82;12.43;;;;;;;19.92;100.00;165780.28;5022329;28;20072;-63
2022/07/25 04:38:51;;;;;;;16.25;11.90;;;;;;;19.99;100.00;165796.59;5016697;28;20362;-63
2022/07/25 04:41:16;;;;;;;13.60;11.68;;;;;;;20.03;100.00;165808.78;5021481;28;20077;-63
2022/07/25 04:43:42;;;;;;;15.93;12.07;;;;;;;20.11;100.00;165829.16;5021819;28;20030;-63
2022/07/25 04:46:07;;;;;;;22.67;12.70;;;;;;;20.22;100.00;165859.00;5021123;28;20052;-62
2022/07/25 04:48:33;;;;;;;13.13;11.18;;;;;;;20.33;100.00;165886.16;5016747;28;20470;-62
2022/07/25 04:50:58;;;;;;;17.83;11.98;;;;;;;20.42;100.00;165910.63;5022009;28;20044;-61
2022/07/25 04:53:23;;;;;;;18.83;13.52;;;;;;;20.54;100.00;165943.19;5023251;28;20030;-61
2022/07/25 04:55:49;;;;;;;14.30;12.35;;;;;;;20.66;100.00;165973.06;5021863;28;20382;-61
2022/07/25 04:58:14;;;;;;;17.15;12.27;;;;;;;20.76;100.00;166000.25;5020792;28;20036;-61
2022/07/25 05:00:40;;;;;;;12.27;10.38;;;;;;;20.89;100.00;166035.53;5020492;28;20073;-61
2022/07/25 05:03:06;;;;;;;15.93;10.85;;;;;;;21.00;100.00;166062.72;5021150;28;20096;-61
2022/07/25 05:05:31;;;;;;;14.43;11.00;;;;;;;21.15;100.00;166103.44;5018942;28;20045;-60
2022/07/25 05:07:58;;;;;;;13.82;11.15;;;;;;;21.29;100.00;166138.75;5018352;28;20368;-61
2022/07/25 05:10:25;;;;;;;21.02;11.25;;;;;;;21.36;100.00;166157.75;5014301;28;20064;-61
2022/07/25 05:12:51;;;;;;;15.57;10.18;;;;;;;21.37;100.00;166160.47;5012904;28;20084;-61
2022/07/25 05:15:16;;;;;;;14.20;11.15;;;;;;;21.42;100.00;166174.03;5011801;28;20436;-60
2022/07/25 05:17:42;;;;;;;13.45;10.88;;;;;;;21.45;100.00;166182.22;5032572;28;20109;-61
2022/07/25 05:20:08;;;;;;;13.38;9.18;;;;;;;21.45;100.00;166182.22;5031105;28;20057;-61
2022/07/25 05:22:33;;;;;;;14.88;9.50;;;;;;;21.49;100.00;166193.06;5032106;28;20029;-61
2022/07/25 05:25:01;;;;;;;14.43;9.35;;;;;;;21.59;100.00;166217.56;5031125;28;20044;-61
2022/07/25 05:27:27;;;;;;;20.10;11.13;;;;;;;21.64;100.00;166231.13;5018145;28;20041;-60
2022/07/25 05:29:52;;;;;;;16.98;10.55;;;;;;;21.76;100.00;166263.78;5010972;28;20056;-63
2022/07/25 05:32:18;;;;;;;16.50;10.45;;;;;;;21.83;100.00;166282.78;5022864;28;20432;-62
2022/07/25 05:34:44;;;;;;;14.68;10.00;;;;;;;21.94;100.00;166309.94;5030086;28;20037;-62
2022/07/25 05:37:10;;;;;;;18.60;11.00;;;;;;;21.99;100.00;166323.53;5031533;28;20028;-62
2022/07/25 05:39:38;;;;;;;13.25;9.60;;;;;;;22.02;100.00;166331.66;5027541;28;20042;-62
2022/07/25 05:42:04;;;;;;;12.13;9.77;;;;;;;22.13;100.00;166360.19;5018514;28;20049;-61
2022/07/25 05:44:29;;;;;;;16.88;10.02;;;;;;;22.29;100.00;166402.34;5020344;28;20032;-63
2022/07/25 05:46:54;;;;;;;13.80;8.65;;;;;;;22.38;100.00;166425.44;5021888;28;20018;-63
2022/07/25 05:49:20;;;;;;;13.27;9.13;;;;;;;22.38;100.00;166426.75;5016995;28;20044;-62
2022/07/25 05:51:45;;;;;;;15.23;9.15;;;;;;;22.35;100.00;166419.97;5021838;28;20033;-63
2022/07/25 05:54:10;;;;;;;11.70;9.23;;;;;;;22.34;100.00;166415.91;5021523;28;20017;-63
2022/07/25 05:56:36;;;;;;;17.58;8.50;;;;;;;22.31;100.00;166409.13;5019611;28;20109;-64
2022/07/25 05:59:01;;;;;;;12.25;9.27;;;;;;;22.32;100.00;166410.47;5019927;28;20034;-63
2022/07/25 06:01:26;;;;;;;11.98;8.60;;;;;;;22.33;100.00;166414.59;5019324;28;20396;-64
2022/07/25 06:03:52;;;;;;;11.85;8.90;;;;;;;22.32;100.00;166410.47;5024437;28;20029;-64
2022/07/25 06:06:17;;;;;;;14.90;8.65;;;;;;;22.27;100.00;166396.91;5009468;28;20046;-63
2022/07/25 06:08:43;;;;;;;13.30;9.38;;;;;;;22.41;100.00;166435.00;5012221;28;20357;-63
2022/07/25 06:11:08;;;;;;;9.60;8.15;;;;;;;22.49;100.00;166456.75;5011768;28;20044;-63
2022/07/25 06:13:33;;;;;;;21.65;10.52;;;;;;;22.56;100.00;166473.03;5030610;28;20025;-63
2022/07/25 06:15:59;;;;;;;11.05;9.35;;;;;;;22.64;100.00;166494.78;5023423;28;20450;-63
2022/07/25 06:18:25;;;;;;;14.00;9.13;;;;;;;22.67;100.00;166502.97;5011496;28;20032;-63
2022/07/25 06:20:51;;;;;;;12.45;8.35;;;;;;;22.76;100.00;166527.38;5009803;28;20125;-63
2022/07/25 06:23:17;;;;;;;16.45;9.23;;;;;;;22.85;100.00;166549.13;5029662;28;20029;-62
2022/07/25 06:25:43;;;;;;;16.77;8.68;;;;;;;23.01;100.00;166592.63;5028807;28;20513;-63
2022/07/25 06:28:08;;;;;;;14.43;8.27;;;;;;;23.13;100.00;166625.25;5028022;28;20042;-63
2022/07/25 06:30:34;;;;;;;12.57;8.55;;;;;;;23.29;100.00;166666.09;5026713;28;20064;-63
2022/07/25 06:33:00;;;;;;;9.70;8.70;;;;;;;23.38;100.00;166690.56;5030660;28;20477;-64
2022/07/25 06:35:25;;;;;;;16.60;7.57;;;;;;;23.41;100.00;166697.34;5028914;28;20619;-63
2022/07/25 06:37:50;;;;;;;11.60;8.27;;;;;;;23.38;100.00;166690.56;5030875;28;20057;-63
2022/07/25 06:40:16;;;;;;;8.68;7.40;;;;;;;23.41;100.00;166698.75;5029302;28;20050;-63
2022/07/25 06:42:43;;;;;;;12.55;9.15;;;;;;;23.57;100.00;166739.47;5031167;28;20037;-63
2022/07/25 06:45:10;;;;;;;9.75;8.15;;;;;;;23.82;100.00;166804.75;5024687;28;20045;-63
2022/07/25 06:47:36;;;;;;;11.35;8.38;;;;;;;24.02;100.00;166859.19;5029686;28;20044;-63
2022/07/25 06:50:02;;;;;;;11.00;8.13;;;;;;;24.14;100.00;166889.13;5028732;28;20653;-63
2022/07/25 06:52:27;;;;;;;11.05;8.32;;;;;;;24.38;100.00;166953.06;5016176;28;20460;-62
2022/07/25 06:54:53;;;;;;;12.20;7.55;;;;;;;24.47;100.00;166976.16;5009737;28;20496;-62
2022/07/25 06:57:18;;;;;;;11.32;7.65;;;;;;;24.67;100.00;167029.25;5018583;28;20037;-62
2022/07/25 06:59:44;;;;;;;13.68;7.55;;;;;;;24.67;100.00;167030.66;5028696;28;20496;-63
2022/07/25 07:02:11;;;;;;;13.85;7.38;;;;;;;24.70;100.00;167038.78;5022982;28;20033;-63
2022/07/25 07:04:37;;;;;;;15.63;8.77;;;;;;;24.69;100.00;167036.06;5010500;28;20041;-62
2022/07/25 07:07:02;;;;;;;8.55;7.70;;;;;;;24.68;100.00;167033.38;5014012;28;20488;-61
2022/07/25 07:09:27;;;;;;;14.07;7.25;;;;;;;24.65;100.00;167023.75;5020229;28;20033;-62
2022/07/25 07:11:53;;;;;;;12.55;8.25;;;;;;;24.54;100.00;166995.19;5015783;28;20076;-62
2022/07/25 07:14:18;;;;;;;15.07;7.88;;;;;;;24.44;100.00;166968.03;5027846;28;20030;-62
2022/07/25 07:16:43;;;;;;;13.63;7.55;;;;;;;24.37;100.00;166951.72;5015599;28;20029;-62
2022/07/25 07:19:13;;;;;;;11.10;7.80;;;;;;;24.46;100.00;166973.47;5022717;28;20101;-62
2022/07/25 07:21:39;;;;;;;10.68;8.32;;;;;;;24.61;100.00;167014.25;5027920;28;20099;-61
2022/07/25 07:24:04;;;;;;;13.52;7.57;;;;;;;25.00;100.00;167117.69;5026211;28;20029;-62
2022/07/25 07:26:29;;;;;;;8.43;7.07;;;;;;;25.37;100.00;167214.31;5021355;28;20062;-58
2022/07/25 07:28:55;;;;;;;7.93;6.63;;;;;;;25.87;100.00;167346.41;5028866;28;20044;-58
2022/07/25 07:31:20;;;;;;;12.30;7.13;;;;;;;26.14;100.00;167417.22;5014806;28;20050;-58
2022/07/25 07:33:45;;;;;;;11.45;6.20;;;;;;;26.18;100.00;167426.72;5024585;28;20025;-58
2022/07/25 07:36:11;;;;;;;11.57;8.00;;;;;;;26.06;100.00;167395.38;5023158;28;20064;-59
2022/07/25 07:38:36;;;;;;;9.18;7.78;;;;;;;25.99;100.00;167377.66;5019289;28;20511;-58
2022/07/25 07:41:02;;;;;;;14.27;7.68;;;;;;;25.96;100.00;167370.84;5009245;28;20046;-58
2022/07/25 07:43:30;;;;;;;10.85;7.75;;;;;;;25.91;100.00;167355.91;5025504;28;20034;-58
2022/07/25 07:45:59;;;;;;;9.98;7.97;;;;;;;25.94;100.00;167365.44;5028761;28;20462;-58
2022/07/25 07:48:25;;;;;;;7.75;6.95;;;;;;;25.96;100.00;167370.84;5016268;28;20034;-58
2022/07/25 07:50:50;;;;;;;9.30;7.97;;;;;;;25.89;100.00;167350.47;5009049;28;20042;-58
2022/07/25 07:53:15;;;;;;;11.38;7.65;;;;;;;25.89;100.00;167351.81;5011574;28;20461;-59
2022/07/25 07:55:44;;;;;;;8.68;7.38;;;;;;;25.87;100.00;167346.41;5008337;28;20034;-58
2022/07/25 07:58:10;;;;;;;11.63;8.43;;;;;;;26.32;100.00;167464.84;5024740;28;20029;-58
2022/07/25 08:00:38;;;;;;;17.15;8.98;;;;;;;26.43;100.00;167493.44;5026955;28;20042;-58
2022/07/25 08:03:05;;;;;;;8.45;7.22;;;;;;;26.49;100.00;167509.75;5026990;28;20026;-58
2022/07/25 08:05:39;;;;;;;11.07;7.88;;;;;;;26.70;100.00;167564.22;5028385;28;20167;-57
2022/07/25 08:08:06;;;;;;;11.55;8.77;;;;;;;26.99;100.00;167641.91;5029643;28;20116;-58
2022/07/25 08:10:35;;;;;;;8.65;7.78;;;;;;;26.78;100.00;167586.06;5028324;28;20064;-58
2022/07/25 08:13:02;;;;;;;20.42;9.65;;;;;;;26.68;100.00;167558.81;5029928;28;20021;-58
2022/07/25 08:15:27;;;;;;;9.73;8.73;;;;;;;26.63;100.00;167546.53;5030299;28;20056;-58
2022/07/25 08:17:53;;;;;;;17.38;8.82;;;;;;;26.62;100.00;167542.47;5033141;28;20468;-58
2022/07/25 08:20:21;;;;;;;12.90;10.63;;;;;;;26.38;100.00;167479.84;5031615;28;20049;-58
2022/07/25 08:22:48;;;;;;;9.70;7.63;;;;;;;26.53;100.00;167520.69;5033924;28;20017;-58
2022/07/25 08:25:16;;;;;;;11.93;9.25;;;;;;;26.72;100.00;167571.06;5030474;28;20044;-58
2022/07/25 08:27:43;;;;;;;14.32;9.30;;;;;;;27.55;100.00;167790.41;5033034;28;20374;-58
2022/07/25 08:30:10;;;;;;;11.38;9.45;;;;;;;27.74;100.00;167839.41;5031688;28;20469;-58
2022/07/25 08:32:46;;;;;;;13.10;9.75;;;;;;;27.72;100.00;167834.00;5031873;28;20045;-57
2022/07/25 08:35:11;;;;;;;12.27;8.57;;;;;;;27.87;100.00;167873.47;5025505;28;20033;-58
2022/07/25 08:37:36;;;;;;;15.43;8.20;;;;;;;27.75;100.00;167842.16;5021881;28;20029;-58
2022/07/25 08:40:02;;;;;;;17.95;9.70;;;;;;;28.04;100.00;167918.44;5018119;28;20068;-58
2022/07/25 08:42:28;;;;;;;14.90;9.30;;;;;;;28.38;100.00;168007.03;5013632;28;20556;-58
2022/07/25 08:44:58;;;;;;;12.35;10.18;;;;;;;28.59;100.00;168062.94;5012198;28;20489;-58
2022/07/25 08:47:23;;;;;;;11.70;9.48;;;;;;;28.28;100.00;167981.16;5013580;28;20387;-58
2022/07/25 08:49:49;;;;;;;12.50;9.18;;;;;;;27.65;100.00;167814.94;5012136;28;20041;-58
2022/07/25 08:52:14;;;;;;;11.30;8.73;;;;;;;27.61;100.00;167804.00;5021303;28;20033;-58
2022/07/25 08:54:40;;;;;;;11.18;8.15;;;;;;;27.68;100.00;167823.09;5017517;28;20068;-58
2022/07/25 08:57:06;;;;;;;8.35;7.57;;;;;;;27.69;100.00;167825.81;5019446;28;20033;-58
2022/07/25 08:59:31;;;;;;;10.80;7.95;;;;;;;27.58;100.00;167797.22;5011673;28;20022;-58
2022/07/25 09:02:01;;;;;;;13.70;8.30;;;;;;;27.84;100.00;167866.69;5023073;28;20137;-58
2022/07/25 09:04:28;;;;;;;9.52;7.72;;;;;;;28.33;100.00;167994.81;5022782;28;20033;-58
2022/07/25 09:06:53;;;;;;;12.23;8.40;;;;;;;28.38;100.00;168008.44;5032978;28;20083;-58
2022/07/25 09:09:28;;;;;;;18.30;8.35;;;;;;;28.56;100.00;168054.78;5016037;28;20489;-58
2022/07/25 09:11:54;;;;;;;13.27;6.53;;;;;;;28.54;100.00;168049.31;5027599;28;20100;-58
2022/07/25 09:14:19;;;;;;;10.05;8.02;;;;;;;28.12;100.00;167940.28;5030762;28;20063;-58
2022/07/25 09:16:45;;;;;;;8.52;7.80;;;;;;;27.93;100.00;167888.50;5029673;28;20086;-58
2022/07/25 09:19:13;;;;;;;11.35;8.57;;;;;;;27.84;100.00;167866.69;5027292;28;20071;-58
2022/07/25 09:21:40;;;;;;;10.52;8.63;;;;;;;27.70;100.00;167829.88;5015234;28;20516;-58
2022/07/25 09:24:09;;;;;;;9.97;8.77;;;;;;;27.65;100.00;167814.94;5019268;28;20060;-58
2022/07/25 09:26:48;;;;;;;12.13;9.65;;;;;;;27.79;100.00;167853.06;5023055;28;20497;-58
2022/07/25 09:29:31;;;;;;;10.80;7.88;;;;;;;28.08;100.00;167929.41;5012645;28;20141;-58
2022/07/25 09:31:58;;;;;;;10.20;8.85;;;;;;;28.12;100.00;167940.28;5018759;28;20064;-58
2022/07/25 09:34:38;;;;;;;10.13;7.53;;;;;;;28.11;100.00;167937.56;5030137;28;20106;-58
2022/07/25 09:37:06;;;;;;;11.57;7.78;;;;;;;27.81;100.00;167857.16;5031768;28;20017;-58
2022/07/25 09:39:46;;;;;;;16.55;7.45;;;;;;;27.76;100.00;167844.88;5020979;28;20032;-58
2022/07/25 09:42:16;;;;;;;11.48;7.50;;;;;;;27.47;100.00;167768.59;5012458;28;20026;-58
2022/07/25 09:44:42;;;;;;;6.93;6.13;;;;;;;27.42;100.00;167755.00;5010832;28;20049;-58
2022/07/25 09:47:12;;;;;;;6.18;4.45;;;;;;;27.65;100.00;167814.94;5014175;28;20022;-58
2022/07/25 09:49:42;;;;;;;6.82;4.15;;;;;;;27.79;100.00;167851.69;5030364;28;20057;-58
2022/07/25 09:52:08;;;;;;;5.93;3.72;;;;;;;28.10;100.00;167934.88;5023338;28;20511;-58
2022/07/25 09:54:33;;;;;;;2.85;2.50;;;;;;;27.89;100.00;167877.63;5010772;28;20591;-58
2022/07/25 09:56:59;;;;;;;9.93;3.30;;;;;;;27.95;100.00;167895.28;5011868;28;20105;-58
2022/07/25 09:59:24;;;;;;;5.60;2.47;;;;;;;28.22;100.00;167964.81;5010329;28;20030;-58
2022/07/25 10:02:18;;;;;;;3.22;2.65;;;;;;;28.52;100.00;168043.84;5012045;28;20163;-58
2022/07/25 10:05:04;;;;;;;2.83;2.63;;;;;;;28.72;100.00;168098.41;5010420;28;20475;-58
2022/07/25 10:07:30;;;;;;;4.18;2.95;;;;;;;28.77;100.00;168112.06;5011788;28;20025;-58
2022/07/25 10:09:56;;;;;;;3.75;3.17;;;;;;;29.06;100.00;168188.38;5010297;28;20501;-58
2022/07/25 10:12:22;;;;;;;6.25;2.60;;;;;;;29.27;100.00;168242.91;5026640;28;20032;-58
2022/07/25 10:15:07;;;;;;;8.18;3.55;;;;;;;29.52;100.00;168309.75;5030140;28;20034;-58
2022/07/25 10:17:35;;;;;;;5.22;2.90;;;;;;;29.68;100.00;168351.97;5030823;28;20039;-58
2022/07/25 10:20:00;;;;;;;4.43;2.92;;;;;;;29.82;100.00;168387.47;5030389;28;20033;-58
2022/07/25 10:22:38;;;;;;;5.85;3.90;;;;;;;29.67;100.00;168349.31;5019997;28;20034;-58
2022/07/25 10:25:14;;;;;;;4.53;3.53;;;;;;;30.03;100.00;168444.78;5010083;28;20042;-58
2022/07/25 10:27:47;;;;;;;6.82;3.97;;;;;;;30.05;100.00;168450.19;5011313;28;20135;-58
2022/07/25 10:30:20;;;;;;;4.13;3.72;;;;;;;29.84;100.00;168394.28;5010275;28;20421;-58
2022/07/25 10:32:54;;;;;;;8.35;4.15;;;;;;;29.46;100.00;168292.00;5011364;28;20029;-58
2022/07/25 10:35:19;;;;;;;5.45;4.32;;;;;;;29.51;100.00;168305.66;5008976;28;20121;-58
2022/07/25 10:37:46;;;;;;;5.57;4.40;;;;;;;29.52;100.00;168308.41;5011380;28;20029;-58
2022/07/25 10:40:45;;;;;;;11.27;4.75;;;;;;;29.25;100.00;168237.44;5009468;28;20572;-59
2022/07/25 10:43:12;;;;;;;5.95;3.67;;;;;;;29.14;100.00;168208.81;5011287;28;20072;-58
2022/07/25 10:45:51;;;;;;;;;;;;;;;29.21;100.00;168226.56;5010633;28;20033;-58
2022/07/25 10:48:26;;;;;;;8.35;5.10;;;;;;;29.10;100.00;168197.94;5010632;28;19936;-58
2022/07/25 10:51:02;;;;;;;7.10;3.45;;;;;;;29.32;100.00;168256.56;5019631;28;20079;-58
2022/07/25 10:53:29;;;;;;;31.80;5.68;;;;;;;29.51;100.00;168305.66;5030710;28;20060;-58
2022/07/25 10:55:57;;;;;;;6.95;3.40;;;;;;;29.41;100.00;168279.78;5029409;28;20049;-58
2022/07/25 10:58:22;;;;;;;5.32;3.10;;;;;;;29.28;98.70;168245.63;5029218;28;20362;-58
2022/07/25 11:00:49;;;;;;;4.60;3.58;;;;;;;29.07;100.00;168191.13;5029456;28;20048;-58
2022/07/25 11:03:15;;;;;;;3.83;2.95;;;;;;;28.97;99.17;168165.19;5029928;28;20053;-58
2022/07/25 11:05:46;;;;;;;2.97;2.10;;;;;;;28.96;96.13;168161.09;5029566;28;20065;-58